createdAt,value
2022-11-02T00:01:55.402Z,8.40
2022-11-02T00:04:22.895Z,8.27
2022-11-02T00:06:50.291Z,7.73
2022-11-02T00:09:17.680Z,7.73
2022-11-02T00:11:45.064Z,8.20
2022-11-02T00:14:12.490Z,8.27
2022-11-02T00:16:41.313Z,7.83
2022-11-02T00:19:09.241Z,7.67
2022-11-02T00:21:37.104Z,7.40
2022-11-02T00:24:05.827Z,8.13
2022-11-02T00:26:34.489Z,8.40
2022-11-02T00:29:01.973Z,7.23
2022-11-02T00:31:29.474Z,7.33
2022-11-02T00:33:58.400Z,7.03
2022-11-02T00:36:26.178Z,7.03
2022-11-02T00:38:53.601Z,7.20
2022-11-02T00:41:22.012Z,7.13
2022-11-02T00:43:49.428Z,7.37
2022-11-02T00:46:16.913Z,7.60
2022-11-02T00:48:44.330Z,7.73
2022-11-02T00:51:13.086Z,7.20
2022-11-02T00:53:40.564Z,7.63
2022-11-02T00:56:08.413Z,7.60
2022-11-02T00:58:35.826Z,8.13
2022-11-02T01:01:05.579Z,7.77
2022-11-02T01:03:33.087Z,7.63
2022-11-02T01:06:00.486Z,8.83
2022-11-02T01:08:29.247Z,12.60
2022-11-02T01:10:56.638Z,12.53
2022-11-02T01:13:24.066Z,17.13
2022-11-02T01:15:51.954Z,12.37
2022-11-02T01:18:19.374Z,8.43
2022-11-02T01:20:46.802Z,7.57
2022-11-02T01:23:14.192Z,7.80
2022-11-02T01:25:47.055Z,8.13
2022-11-02T01:28:14.473Z,7.77
2022-11-02T01:30:41.894Z,10.27
2022-11-02T01:33:09.361Z,10.03
2022-11-02T01:35:38.014Z,10.00
2022-11-02T01:38:05.748Z,10.83
2022-11-02T01:40:35.732Z,10.63
2022-11-02T01:43:18.091Z,9.80
2022-11-02T01:45:47.639Z,12.10
2022-11-02T01:48:15.236Z,10.67
2022-11-02T01:50:42.864Z,7.93
2022-11-02T01:53:10.481Z,8.70
2022-11-02T01:55:37.970Z,8.63
2022-11-02T01:58:07.643Z,8.73
2022-11-02T02:00:35.353Z,9.80
2022-11-02T02:03:06.444Z,8.17
2022-11-02T02:05:34.772Z,10.57
2022-11-02T02:08:03.292Z,8.83
2022-11-02T02:10:30.967Z,6.97
2022-11-02T02:12:58.418Z,5.83
2022-11-02T02:15:27.489Z,4.23
2022-11-02T02:17:58.333Z,5.37
2022-11-02T02:20:33.170Z,4.20
2022-11-02T02:23:27.896Z,3.63
2022-11-02T02:26:14.043Z,2.83
2022-11-02T02:28:46.764Z,3.97
2022-11-02T02:31:17.562Z,2.93
2022-11-02T02:33:47.058Z,3.13
2022-11-02T02:36:17.274Z,3.23
2022-11-02T02:38:46.209Z,3.57
2022-11-02T02:41:15.282Z,3.93
2022-11-02T02:43:45.286Z,5.30
2022-11-02T02:46:16.641Z,5.20
2022-11-02T02:48:44.820Z,5.80
2022-11-02T02:51:15.374Z,5.97
2022-11-02T02:53:44.615Z,5.97
2022-11-02T02:56:12.469Z,5.30
2022-11-02T02:58:43.183Z,5.87
2022-11-02T03:01:14.513Z,6.37
2022-11-02T03:03:42.778Z,6.77
2022-11-02T03:06:16.255Z,6.23
2022-11-02T03:08:47.509Z,7.90
2022-11-02T03:11:16.489Z,6.97
2022-11-02T03:13:50.752Z,6.90
2022-11-02T03:16:25.328Z,6.60
2022-11-02T03:18:54.794Z,6.40
2022-11-02T03:21:27.235Z,5.87
2022-11-02T03:23:59.392Z,4.43
2022-11-02T03:26:30.318Z,5.83
2022-11-02T03:29:01.470Z,5.07
2022-11-02T03:31:34.913Z,5.97
2022-11-02T03:34:05.580Z,4.77
2022-11-02T03:36:34.592Z,4.73
2022-11-02T03:39:05.824Z,5.30
2022-11-02T03:41:33.922Z,5.47
2022-11-02T03:44:04.869Z,4.77
2022-11-02T03:46:35.141Z,4.67
2022-11-02T03:49:07.556Z,4.90
2022-11-02T03:51:38.310Z,4.40
2022-11-02T03:54:07.801Z,4.73
2022-11-02T03:56:37.699Z,4.27
2022-11-02T03:59:05.177Z,4.00
2022-11-02T04:01:38.878Z,4.13
2022-11-02T04:04:06.663Z,4.83
2022-11-02T04:06:34.811Z,4.60
2022-11-02T04:09:02.303Z,4.10
2022-11-02T04:11:47.155Z,3.90
2022-11-02T04:14:31.980Z,4.50
2022-11-02T04:17:14.734Z,4.03
2022-11-02T04:19:45.437Z,4.23
2022-11-02T04:22:33.911Z,4.43
2022-11-02T04:25:19.357Z,4.17
2022-11-02T04:27:47.931Z,4.90
2022-11-02T04:30:15.835Z,4.20
2022-11-02T04:33:02.664Z,4.43
2022-11-02T04:35:30.485Z,4.40
2022-11-02T04:38:15.942Z,3.90
2022-11-02T04:40:43.413Z,4.30
2022-11-02T04:43:11.071Z,4.17
2022-11-02T04:45:38.603Z,4.00
2022-11-02T04:48:08.365Z,4.10
2022-11-02T04:50:35.944Z,4.20
2022-11-02T04:53:04.725Z,3.60
2022-11-02T04:55:32.309Z,4.00
2022-11-02T04:57:59.808Z,4.43
2022-11-02T05:00:27.334Z,4.00
2022-11-02T05:02:54.884Z,4.20
2022-11-02T05:05:23.767Z,4.30
2022-11-02T05:07:51.240Z,3.93
2022-11-02T05:10:18.702Z,4.10
2022-11-02T05:12:46.215Z,4.07
2022-11-02T05:15:13.728Z,3.97
2022-11-02T05:17:41.193Z,3.77
2022-11-02T05:20:08.949Z,4.17
2022-11-02T05:22:38.026Z,4.50
2022-11-02T05:25:05.834Z,4.27
2022-11-02T05:27:33.306Z,3.70
2022-11-02T05:30:00.949Z,3.87
2022-11-02T05:32:28.482Z,4.33
2022-11-02T05:34:55.975Z,4.00
2022-11-02T05:37:23.597Z,3.27
2022-11-02T05:39:52.403Z,3.73
2022-11-02T05:42:19.870Z,3.40
2022-11-02T05:44:47.290Z,3.23
2022-11-02T05:47:14.738Z,3.50
2022-11-02T05:49:42.234Z,3.17
2022-11-02T05:52:09.790Z,2.97
2022-11-02T05:54:37.451Z,3.30
2022-11-02T05:57:06.598Z,3.20
2022-11-02T05:59:34.289Z,3.47
2022-11-02T06:02:02.146Z,3.00
2022-11-02T06:04:29.975Z,3.37
2022-11-02T06:06:57.602Z,3.53
2022-11-02T06:09:25.060Z,3.10
2022-11-02T06:11:52.535Z,3.27
2022-11-02T06:14:21.392Z,3.53
2022-11-02T06:16:48.847Z,3.50
2022-11-02T06:19:16.621Z,3.07
2022-11-02T06:21:47.382Z,3.10
2022-11-02T06:24:16.020Z,3.60
2022-11-02T06:26:43.476Z,2.77
2022-11-02T06:29:10.934Z,2.90
2022-11-02T06:31:39.737Z,3.00
2022-11-02T06:34:07.501Z,2.73
2022-11-02T06:36:34.950Z,2.57
2022-11-02T06:39:02.441Z,2.90
2022-11-02T06:41:29.830Z,3.10
2022-11-02T06:43:59.940Z,3.43
2022-11-02T06:46:27.409Z,3.57
2022-11-02T06:48:56.174Z,3.23
2022-11-02T06:51:23.615Z,3.13
2022-11-02T06:53:51.087Z,2.97
2022-11-02T06:56:18.636Z,3.03
2022-11-02T06:58:46.076Z,2.77
2022-11-02T07:01:15.280Z,2.90
2022-11-02T07:03:42.887Z,3.00
2022-11-02T07:06:14.388Z,2.30
2022-11-02T07:08:42.414Z,2.77
2022-11-02T07:11:13.521Z,3.30
2022-11-02T07:13:41.056Z,3.17
2022-11-02T07:16:08.770Z,2.50
2022-11-02T07:18:36.305Z,2.23
2022-11-02T07:21:04.222Z,2.50
2022-11-02T07:23:33.090Z,3.03
2022-11-02T07:26:02.120Z,2.40
2022-11-02T07:28:29.681Z,2.43
2022-11-02T07:30:57.230Z,2.10
2022-11-02T07:33:24.704Z,2.33
2022-11-02T07:35:52.147Z,2.30
2022-11-02T07:38:19.624Z,2.37
2022-11-02T07:40:49.396Z,2.67
2022-11-02T07:43:16.824Z,1.93
2022-11-02T07:45:44.278Z,2.30
2022-11-02T07:48:11.704Z,2.17
2022-11-02T07:50:39.223Z,1.73
2022-11-02T07:53:07.110Z,1.97
2022-11-02T07:55:34.847Z,1.50
2022-11-02T07:58:04.618Z,1.80
2022-11-02T08:00:33.179Z,1.70
2022-11-02T08:03:01.713Z,1.47
2022-11-02T08:05:30.048Z,1.33
2022-11-02T08:07:58.016Z,1.53
2022-11-02T08:10:25.630Z,1.40
2022-11-02T08:12:53.357Z,1.23
2022-11-02T08:15:22.167Z,1.73
2022-11-02T08:17:49.691Z,1.47
2022-11-02T08:20:17.363Z,1.10
2022-11-02T08:22:44.855Z,1.23
2022-11-02T08:25:12.574Z,1.50
2022-11-02T08:27:40.234Z,1.30
2022-11-02T08:30:08.491Z,1.40
2022-11-02T08:32:37.529Z,1.37
2022-11-02T08:35:05.799Z,1.37
2022-11-02T08:37:33.434Z,1.20
2022-11-02T08:40:01.013Z,1.33
2022-11-02T08:42:28.558Z,1.30
2022-11-02T08:44:56.108Z,1.10
2022-11-02T08:47:24.422Z,1.20
2022-11-02T08:49:53.262Z,1.23
2022-11-02T08:52:20.756Z,1.10
2022-11-02T08:54:48.434Z,1.00
2022-11-02T08:57:15.887Z,0.87
2022-11-02T08:59:43.383Z,1.13
2022-11-02T09:02:11.173Z,1.00
2022-11-02T09:04:38.796Z,0.80
2022-11-02T09:07:07.658Z,0.90
2022-11-02T09:09:35.136Z,1.10
2022-11-02T09:12:02.630Z,0.80
2022-11-02T09:14:30.210Z,1.00
2022-11-02T09:16:57.698Z,1.07
2022-11-02T09:19:25.308Z,1.10
2022-11-02T09:21:52.821Z,1.00
2022-11-02T09:24:21.687Z,1.23
2022-11-02T09:26:49.512Z,1.23
2022-11-02T09:29:17.098Z,1.00
2022-11-02T09:31:44.736Z,0.90
2022-11-02T09:34:12.280Z,0.80
2022-11-02T09:36:39.753Z,0.80
2022-11-02T09:39:07.309Z,0.87
2022-11-02T09:41:40.757Z,1.13
2022-11-02T09:44:10.942Z,0.90
2022-11-02T09:46:40.522Z,1.10
2022-11-02T09:49:12.392Z,0.87
2022-11-02T09:51:41.176Z,0.90
2022-11-02T09:54:16.242Z,0.90
2022-11-02T09:56:47.346Z,1.00
2022-11-02T09:59:16.264Z,0.90
2022-11-02T10:01:47.416Z,0.90
2022-11-02T10:04:33.758Z,0.60
2022-11-02T10:07:06.894Z,0.70
2022-11-02T10:09:38.690Z,0.90
2022-11-02T10:12:13.098Z,0.90
2022-11-02T10:14:44.821Z,0.80
2022-11-02T10:17:14.357Z,0.80
2022-11-02T10:19:43.182Z,0.80
2022-11-02T10:22:12.774Z,0.90
2022-11-02T10:24:42.778Z,1.03
2022-11-02T10:27:16.319Z,1.10
2022-11-02T10:29:46.618Z,0.90
2022-11-02T10:32:14.642Z,0.70
2022-11-02T10:34:43.134Z,1.00
2022-11-02T10:37:20.126Z,1.10
2022-11-02T10:39:52.560Z,0.87
2022-11-02T10:42:29.862Z,1.13
2022-11-02T10:45:02.922Z,0.90
2022-11-02T10:47:31.686Z,0.80
2022-11-02T10:50:10.985Z,0.90
2022-11-02T10:52:41.300Z,0.90
2022-11-02T10:55:11.911Z,0.80
2022-11-02T10:57:41.021Z,1.00
2022-11-02T11:00:25.189Z,0.80
2022-11-02T11:03:06.228Z,0.97
2022-11-02T11:05:36.650Z,0.83
2022-11-02T11:08:04.791Z,1.10
2022-11-02T11:10:37.098Z,1.17
2022-11-02T11:13:07.765Z,0.87
2022-11-02T11:15:51.446Z,0.80
2022-11-02T11:21:08.050Z,0.90
2022-11-02T11:23:35.695Z,1.07
2022-11-02T11:26:04.380Z,0.90
2022-11-02T11:28:34.405Z,0.80
2022-11-02T11:31:12.961Z,0.80
2022-11-02T11:33:48.542Z,0.80
2022-11-02T11:38:51.900Z,0.97
2022-11-02T11:41:19.606Z,0.90
2022-11-02T11:43:49.679Z,1.00
2022-11-02T11:46:18.080Z,0.80
2022-11-02T11:48:47.709Z,0.70
2022-11-02T11:51:28.703Z,0.80
2022-11-02T11:54:18.956Z,0.80
2022-11-02T11:56:48.222Z,1.17
2022-11-02T11:59:31.635Z,1.00
2022-11-02T12:01:59.863Z,1.03
2022-11-02T12:04:28.368Z,0.90
2022-11-02T12:07:00.826Z,0.90
2022-11-02T12:09:32.981Z,0.70
2022-11-02T12:12:05.422Z,1.00
2022-11-02T12:14:41.316Z,0.80
2022-11-02T12:17:16.862Z,0.80
2022-11-02T12:19:54.081Z,0.80
2022-11-02T12:22:24.885Z,0.80
2022-11-02T12:25:09.603Z,0.60
2022-11-02T12:27:43.542Z,0.70
2022-11-02T12:30:15.005Z,0.70
2022-11-02T12:32:57.648Z,0.80
2022-11-02T12:35:58.532Z,0.90
2022-11-02T12:38:40.928Z,0.82
2022-11-02T12:41:09.243Z,0.68
2022-11-02T12:43:44.576Z,1.00
2022-11-02T12:46:20.053Z,0.80
2022-11-02T12:48:51.007Z,0.70
2022-11-02T12:51:19.894Z,0.80
2022-11-02T12:53:50.454Z,0.80
2022-11-02T12:56:20.801Z,1.15
2022-11-02T12:58:48.948Z,1.00
2022-11-02T13:01:22.101Z,0.90
2022-11-02T13:03:51.877Z,0.73
2022-11-02T13:06:23.591Z,0.77
2022-11-02T13:08:53.394Z,0.95
2022-11-02T13:11:23.721Z,1.10
2022-11-02T13:13:53.674Z,0.70
2022-11-02T13:16:26.580Z,0.80
2022-11-02T13:18:58.136Z,0.97
2022-11-02T13:21:31.967Z,1.07
2022-11-02T13:24:01.588Z,0.80
2022-11-02T13:26:30.379Z,0.63
2022-11-02T13:29:00.733Z,1.10
2022-11-02T13:31:31.650Z,1.13
2022-11-02T13:34:01.559Z,0.80
2022-11-02T13:36:29.418Z,0.80
2022-11-02T13:39:01.746Z,0.63
2022-11-02T13:41:42.458Z,0.60
2022-11-02T13:44:34.099Z,0.87
2022-11-02T13:47:07.350Z,0.80
2022-11-02T13:49:36.855Z,0.70
2022-11-02T13:52:06.757Z,0.80
2022-11-02T13:54:41.455Z,0.80
2022-11-02T13:57:21.447Z,0.70
2022-11-02T13:59:48.963Z,0.80
2022-11-02T14:02:21.042Z,0.70
2022-11-02T14:04:49.310Z,0.80
2022-11-02T14:07:23.658Z,0.70
2022-11-02T14:09:51.467Z,0.90
2022-11-02T14:12:41.355Z,0.80
2022-11-02T14:15:27.651Z,0.90
2022-11-02T14:18:03.896Z,0.80
2022-11-02T14:20:35.491Z,1.20
2022-11-02T14:23:21.861Z,0.80
2022-11-02T14:25:50.222Z,0.80
2022-11-02T14:28:35.673Z,0.80
2022-11-02T14:31:18.111Z,0.63
2022-11-02T14:34:01.277Z,0.70
2022-11-02T14:36:41.629Z,0.90
2022-11-02T14:39:15.178Z,0.90
2022-11-02T14:41:57.072Z,1.00
2022-11-02T14:44:45.681Z,0.80
2022-11-02T14:47:14.219Z,0.80
2022-11-02T14:49:50.026Z,0.70
2022-11-02T14:52:23.657Z,0.93
2022-11-02T14:54:51.877Z,0.77
2022-11-02T14:57:25.004Z,0.80
2022-11-02T14:59:54.912Z,0.90
2022-11-02T15:02:24.347Z,0.87
2022-11-02T15:04:55.399Z,0.70
2022-11-02T15:07:23.706Z,0.80
2022-11-02T15:09:55.339Z,0.93
2022-11-02T15:12:41.148Z,0.80
2022-11-02T15:15:27.441Z,0.70
2022-11-02T15:18:00.024Z,0.77
2022-11-02T15:20:30.070Z,0.70
2022-11-02T15:22:59.646Z,0.83
2022-11-02T15:25:28.388Z,0.90
2022-11-02T15:27:57.676Z,0.70
2022-11-02T15:30:28.489Z,0.80
2022-11-02T15:33:01.476Z,0.90
2022-11-02T15:35:34.432Z,1.07
2022-11-02T15:38:16.951Z,0.70
2022-11-02T15:40:48.288Z,1.63
2022-11-02T15:43:22.369Z,1.13
2022-11-02T15:46:01.165Z,1.47
2022-11-02T15:48:38.516Z,1.97
2022-11-02T15:51:11.074Z,1.27
2022-11-02T15:53:46.533Z,1.47
2022-11-02T15:56:21.239Z,1.00
2022-11-02T15:58:59.621Z,0.80
2022-11-02T16:01:27.792Z,1.13
2022-11-02T16:03:59.184Z,1.00
2022-11-02T16:06:29.243Z,1.00
2022-11-02T16:08:57.945Z,1.00
2022-11-02T16:11:25.828Z,1.00
2022-11-02T16:14:08.596Z,0.90
2022-11-02T16:16:46.953Z,1.20
2022-11-02T16:19:18.950Z,1.30
2022-11-02T16:21:48.126Z,1.20
2022-11-02T16:24:15.830Z,1.03
2022-11-02T16:26:44.564Z,1.33
2022-11-02T16:29:12.127Z,1.20
2022-11-02T16:31:40.875Z,1.10
2022-11-02T16:34:17.051Z,1.13
2022-11-02T16:36:44.572Z,1.43
2022-11-02T16:39:17.438Z,1.57
2022-11-02T16:41:48.099Z,34.70
2022-11-02T16:44:18.351Z,3.07
2022-11-02T16:46:49.346Z,2.37
2022-11-02T16:49:18.603Z,1.97
2022-11-02T16:51:49.872Z,1.70
2022-11-02T16:54:24.870Z,1.33
2022-11-02T16:56:53.006Z,2.27
2022-11-02T16:59:21.376Z,2.07
2022-11-02T17:01:49.112Z,1.63
2022-11-02T17:04:18.634Z,1.73
2022-11-02T17:06:46.923Z,1.40
2022-11-02T17:09:23.034Z,1.77
2022-11-02T17:11:50.944Z,2.57
2022-11-02T17:14:19.607Z,2.10
2022-11-02T17:17:08.028Z,1.60
2022-11-02T17:19:48.015Z,1.60
2022-11-02T17:22:17.171Z,1.93
2022-11-02T17:24:45.998Z,2.10
2022-11-02T17:27:23.548Z,1.87
2022-11-02T17:29:51.237Z,2.50
2022-11-02T17:32:19.057Z,2.03
2022-11-02T17:34:50.340Z,2.53
2022-11-02T17:37:23.101Z,2.27
2022-11-02T17:39:52.116Z,1.90
2022-11-02T17:42:37.457Z,1.80
2022-11-02T17:45:37.253Z,2.07
2022-11-02T17:48:05.942Z,2.37
2022-11-02T17:50:35.273Z,2.63
2022-11-02T17:53:03.697Z,2.63
2022-11-02T17:55:33.734Z,2.50
2022-11-02T17:58:01.728Z,2.50
2022-11-02T18:00:29.557Z,2.53
2022-11-02T18:02:58.044Z,2.37
2022-11-02T18:05:27.693Z,2.50
2022-11-02T18:07:55.826Z,2.80
2022-11-02T18:10:24.259Z,5.87
2022-11-02T18:12:53.274Z,5.53
2022-11-02T18:15:22.298Z,4.80
2022-11-02T18:17:49.970Z,3.70
2022-11-02T18:20:17.768Z,3.93
2022-11-02T18:22:45.437Z,5.33
2022-11-02T18:25:14.590Z,4.87
2022-11-02T18:27:42.336Z,3.93
2022-11-02T18:30:12.661Z,4.83
2022-11-02T18:32:40.549Z,4.07
2022-11-02T18:35:10.278Z,4.40
2022-11-02T18:37:38.104Z,3.83
2022-11-02T18:40:06.152Z,3.73
2022-11-02T18:42:33.682Z,3.57
2022-11-02T18:45:01.285Z,5.30
2022-11-02T18:47:30.206Z,6.67
2022-11-02T18:49:57.816Z,7.27
2022-11-02T18:52:29.515Z,5.87
2022-11-02T18:55:03.197Z,5.73
2022-11-02T18:57:30.810Z,5.20
2022-11-02T18:59:59.329Z,5.43
2022-11-02T19:02:27.352Z,5.57
2022-11-02T19:04:56.378Z,5.00
2022-11-02T19:07:41.844Z,3.70
2022-11-02T19:10:09.835Z,4.73
2022-11-02T19:12:37.768Z,3.93
2022-11-02T19:15:05.670Z,3.67
2022-11-02T19:17:33.234Z,4.27
2022-11-02T19:20:02.274Z,3.77
2022-11-02T19:22:29.834Z,4.60
2022-11-02T19:24:57.458Z,5.23
2022-11-02T19:27:26.289Z,5.23
2022-11-02T19:29:53.886Z,5.53
2022-11-02T19:32:21.496Z,4.67
2022-11-02T19:34:50.324Z,5.33
2022-11-02T19:37:19.498Z,5.33
2022-11-02T19:39:47.213Z,4.93
2022-11-02T19:42:14.819Z,4.87
2022-11-02T19:44:43.014Z,5.00
2022-11-02T19:47:10.909Z,5.57
2022-11-02T19:49:39.036Z,5.97
2022-11-02T19:52:06.906Z,5.60
2022-11-02T19:54:37.261Z,4.13
2022-11-02T19:57:05.273Z,6.00
2022-11-02T19:59:34.225Z,5.83
2022-11-02T20:02:02.146Z,5.97
2022-11-02T20:04:30.367Z,5.30
2022-11-02T20:06:58.219Z,5.27
2022-11-02T20:09:25.978Z,5.27
2022-11-02T20:11:55.899Z,4.83
2022-11-02T20:14:23.725Z,5.20
2022-11-02T20:17:04.328Z,5.20
2022-11-02T20:19:38.952Z,5.40
2022-11-02T20:22:06.694Z,6.40
2022-11-02T20:24:34.446Z,5.07
2022-11-02T20:27:04.724Z,5.97
2022-11-02T20:29:32.422Z,5.80
2022-11-02T20:32:00.892Z,5.70
2022-11-02T20:34:28.874Z,5.73
2022-11-02T20:36:56.618Z,5.60
2022-11-02T20:39:24.317Z,5.40
2022-11-02T20:41:55.859Z,5.37
2022-11-02T20:44:26.329Z,3.80
2022-11-02T20:46:54.038Z,4.20
2022-11-02T20:49:44.248Z,4.43
2022-11-02T20:52:10.620Z,4.67
2022-11-02T20:54:38.282Z,5.30
2022-11-02T20:57:06.413Z,5.73
2022-11-02T20:59:35.562Z,5.63
2022-11-02T21:02:03.174Z,5.23
2022-11-02T21:04:30.855Z,5.83
2022-11-02T21:06:58.427Z,5.53
2022-11-02T21:09:26.574Z,5.47
2022-11-02T21:12:23.238Z,4.70
2022-11-02T21:14:52.166Z,4.07
2022-11-02T21:17:19.819Z,4.27
2022-11-02T21:19:47.409Z,4.63
2022-11-02T21:22:15.089Z,4.03
2022-11-02T21:24:42.687Z,4.13
2022-11-02T21:27:10.282Z,4.27
2022-11-02T21:29:37.816Z,3.93
2022-11-02T21:32:07.669Z,4.43
2022-11-02T21:34:35.322Z,5.17
2022-11-02T21:37:06.527Z,4.80
2022-11-02T21:39:34.745Z,5.60
2022-11-02T21:42:02.390Z,5.30
2022-11-02T21:44:29.980Z,4.43
2022-11-02T21:46:57.513Z,5.37
2022-11-02T21:49:26.455Z,5.33
2022-11-02T21:51:54.158Z,5.17
2022-11-02T21:54:21.763Z,4.70
2022-11-02T21:56:50.364Z,5.50
2022-11-02T21:59:17.902Z,5.77
2022-11-02T22:01:44.996Z,5.67
2022-11-02T22:04:13.447Z,5.37
2022-11-02T22:06:42.550Z,4.80
2022-11-02T22:09:11.443Z,6.20
2022-11-02T22:11:39.353Z,5.63
2022-11-02T22:14:06.126Z,7.17
2022-11-02T22:16:35.018Z,7.07
2022-11-02T22:19:03.392Z,5.87
2022-11-02T22:21:31.856Z,6.50
2022-11-02T22:24:01.183Z,6.37
2022-11-02T22:26:29.429Z,6.80
2022-11-02T22:28:57.827Z,6.13
2022-11-02T22:31:26.565Z,5.77
2022-11-02T22:33:55.123Z,5.87
2022-11-02T22:36:24.262Z,5.83
2022-11-02T22:38:54.272Z,6.73
2022-11-02T22:41:24.628Z,5.50
2022-11-02T22:43:53.948Z,5.70
2022-11-02T22:46:21.836Z,5.47
2022-11-02T22:48:51.219Z,5.43
2022-11-02T22:51:19.208Z,4.83
2022-11-02T22:53:46.722Z,4.90
2022-11-02T22:56:14.675Z,5.63
2022-11-02T22:58:44.434Z,5.40
2022-11-02T23:01:13.013Z,5.57
2022-11-02T23:03:40.854Z,5.37
2022-11-02T23:06:08.481Z,5.57
2022-11-02T23:08:37.077Z,5.03
2022-11-02T23:11:23.424Z,5.50
2022-11-02T23:13:53.326Z,5.40
2022-11-02T23:16:24.750Z,4.73
2022-11-02T23:19:13.896Z,5.23
2022-11-02T23:21:42.385Z,4.70
2022-11-02T23:24:27.388Z,4.33
2022-11-02T23:26:55.314Z,4.10
2022-11-02T23:29:41.708Z,4.37
2022-11-02T23:32:29.282Z,4.77
2022-11-02T23:35:14.705Z,4.70
2022-11-02T23:37:42.498Z,4.93
2022-11-02T23:40:10.644Z,4.57
2022-11-02T23:42:38.090Z,4.23
2022-11-02T23:45:07.493Z,4.60
2022-11-02T23:47:52.312Z,4.37
2022-11-02T23:50:35.031Z,4.23
2022-11-02T23:53:20.197Z,4.33
2022-11-02T23:56:04.850Z,4.60
2022-11-02T23:58:32.241Z,5.03
